Time;durP1;ratioP1;P1;durP2;ratioP2;P2;SDS_P1;SDS_P2;PMS_P1;PMS_P2;Temp;Humidity;BMP_temperature;BMP_pressure;BME280_temperature;BME280_humidity;BME280_pressure;Samples;Min_cycle;Max_cycle;Signal;HPM_P1;HPM_P2
2021/11/13 00:08:38;;;;;;;70.90;31.70;;;;;;;3.44;84.83;98854.09;422656;1305;109084;-41
2021/11/13 00:18:47;;;;;;;65.60;30.80;;;;;;;3.34;84.86;98849.00;422485;1305;97530;-40
2021/11/13 00:28:55;;;;;;;63.20;30.20;;;;;;;3.25;85.14;98843.59;422687;1305;111053;-40
2021/11/13 00:39:03;;;;;;;64.30;29.10;;;;;;;3.24;85.46;98841.46;422484;1305;108792;-40
2021/11/13 00:49:11;;;;;;;64.20;28.90;;;;;;;3.16;85.68;98835.67;422652;1305;97969;-40
2021/11/13 00:59:19;;;;;;;59.30;29.10;;;;;;;3.13;85.78;98826.63;422561;1306;108472;-40
2021/11/13 01:09:27;;;;;;;72.70;30.30;;;;;;;3.10;86.04;98810.08;422992;1307;97526;-40
2021/11/13 01:19:35;;;;;;;66.00;32.10;;;;;;;3.15;86.13;98800.70;418675;1312;5382010;-41
2021/11/13 01:29:43;;;;;;;85.30;34.30;;;;;;;3.20;86.10;98793.73;422592;1305;108936;-40
2021/11/13 01:39:51;;;;;;;77.30;33.20;;;;;;;3.28;85.94;98780.67;422690;1306;96712;-40
2021/11/13 01:49:59;;;;;;;101.50;40.50;;;;;;;3.29;85.98;98771.71;422318;1305;108172;-40
2021/11/13 02:00:07;;;;;;;102.30;38.10;;;;;;;3.19;86.11;98777.24;422588;1305;97962;-40
2021/11/13 02:10:17;;;;;;;84.20;37.00;;;;;;;3.27;85.98;98764.29;422358;1306;111111;-40
2021/11/13 02:20:28;;;;;;;86.20;35.60;;;;;;;3.38;85.88;98766.17;423351;1294;108793;-42
2021/11/13 02:30:36;;;;;;;75.70;30.70;;;;;;;3.39;85.95;98767.20;422700;1306;97512;-42
2021/11/13 02:40:45;;;;;;;79.00;32.30;;;;;;;3.45;85.83;98762.13;422654;1306;108961;-41
2021/11/13 02:50:49;;;;;;;74.10;33.00;;;;;;;3.49;85.73;98759.83;422501;1308;97641;-41
2021/11/13 03:01:00;;;;;;;86.70;36.30;;;;;;;3.41;85.74;98755.85;422778;1308;111237;-41
2021/11/13 03:11:09;;;;;;;87.60;36.70;;;;;;;3.25;85.82;98748.95;422498;1307;106883;-41
2021/11/13 03:21:16;;;;;;;68.20;31.70;;;;;;;3.19;85.73;98733.02;422652;1307;97961;-44
2021/11/13 03:31:24;;;;;;;62.50;30.10;;;;;;;3.16;85.65;98731.30;422674;1307;108986;-41
2021/11/13 03:41:32;;;;;;;57.30;29.60;;;;;;;3.19;85.76;98732.83;422733;1306;97543;-40
2021/11/13 03:51:39;;;;;;;68.90;29.60;;;;;;;3.16;85.64;98731.13;422877;1311;111464;-41
2021/11/13 04:01:47;;;;;;;94.40;37.30;;;;;;;3.09;85.95;98728.81;422717;1307;108987;-42
2021/11/13 04:11:54;;;;;;;90.00;35.40;;;;;;;2.97;85.94;98723.58;422641;1307;98152;-39
2021/11/13 04:22:03;;;;;;;68.00;31.80;;;;;;;2.93;85.95;98720.79;422816;1307;111065;-40
2021/11/13 04:32:13;;;;;;;54.80;27.80;;;;;;;2.91;85.82;98716.98;422461;1307;108944;-41
2021/11/13 04:42:21;;;;;;;53.20;24.90;;;;;;;2.82;85.98;98710.66;422807;1307;97952;-41
2021/11/13 04:52:28;;;;;;;46.20;23.80;;;;;;;2.77;86.24;98713.84;422686;1307;108986;-41
2021/11/13 05:02:36;;;;;;;44.50;22.60;;;;;;;2.85;86.08;98722.48;422798;1310;98035;-40
2021/11/13 05:12:44;;;;;;;50.00;23.60;;;;;;;2.69;86.03;98722.80;422422;1305;111052;-40
2021/11/13 05:22:55;;;;;;;45.30;22.60;;;;;;;2.60;86.12;98719.16;422721;1308;108861;-41
2021/11/13 05:33:03;;;;;;;43.60;22.70;;;;;;;2.57;86.22;98715.91;422573;1306;97693;-41
2021/11/13 05:43:10;;;;;;;42.70;20.30;;;;;;;2.56;86.18;98723.66;422604;1306;108888;-41
2021/11/13 05:53:17;;;;;;;59.90;29.60;;;;;;;2.50;86.09;98730.91;422797;1305;97968;-40
2021/11/13 06:03:24;;;;;;;58.60;26.10;;;;;;;2.45;86.28;98729.46;422416;1305;111403;-42
2021/11/13 06:13:31;;;;;;;42.60;22.80;;;;;;;2.39;86.11;98735.68;422954;1305;108900;-40
2021/11/13 06:23:44;;;;;;;46.80;22.80;;;;;;;2.45;86.16;98745.26;422651;1305;98045;-40
2021/11/13 06:33:52;;;;;;;40.90;21.70;;;;;;;2.43;86.21;98753.59;422894;1306;111627;-40
2021/11/13 06:44:00;;;;;;;43.20;22.50;;;;;;;2.50;86.29;98763.88;422366;1307;109072;-40
2021/11/13 06:54:09;;;;;;;42.60;21.40;;;;;;;2.59;86.44;98768.67;422606;1306;99518;-40
2021/11/13 07:04:16;;;;;;;39.20;21.40;;;;;;;2.63;86.38;98775.43;422855;1306;108783;-40
2021/11/13 07:14:24;;;;;;;42.20;21.60;;;;;;;2.78;86.51;98777.98;422432;1305;97974;-40
2021/11/13 07:24:31;;;;;;;54.10;26.40;;;;;;;2.93;86.24;98777.49;422599;1306;111339;-41
2021/11/13 07:34:38;;;;;;;56.50;27.40;;;;;;;3.03;86.33;98778.00;422712;1311;108936;-39
2021/11/13 07:44:47;;;;;;;44.20;23.00;;;;;;;3.13;86.14;98779.66;422409;1306;97958;-41
2021/11/13 07:54:54;;;;;;;42.80;23.80;;;;;;;3.37;86.23;98769.45;422874;1306;108926;-40
2021/11/13 08:05:00;;;;;;;39.80;23.30;;;;;;;3.68;86.15;98768.43;422345;1305;97980;-42
2021/11/13 08:15:09;;;;;;;71.80;33.40;;;;;;;3.74;85.95;98769.14;422617;1305;111206;-41
2021/11/13 08:25:16;;;;;;;58.40;29.60;;;;;;;3.72;85.95;98773.65;422684;1309;107848;-40
2021/11/13 08:35:24;;;;;;;42.90;24.80;;;;;;;3.72;85.75;98764.13;422629;1305;98088;-39
2021/11/13 08:45:32;;;;;;;41.80;22.70;;;;;;;3.93;85.76;98765.79;422552;1305;110086;-41
2021/11/13 08:55:43;;;;;;;54.50;26.20;;;;;;;4.07;85.61;98767.33;422785;1305;108840;-40
2021/11/13 09:05:51;;;;;;;49.40;26.90;;;;;;;4.11;85.49;98766.48;422536;1306;98182;-41
2021/11/13 09:16:00;;;;;;;37.20;22.90;;;;;;;4.08;85.39;98763.71;418957;1306;5372665;-40
2021/11/13 09:26:10;;;;;;;37.30;24.00;;;;;;;4.04;85.21;98753.23;422473;1305;108706;-40
2021/11/13 09:36:17;;;;;;;35.20;21.90;;;;;;;4.32;85.23;98753.45;422537;1305;97944;-40
2021/11/13 09:46:25;;;;;;;52.00;29.20;;;;;;;4.73;85.05;98754.55;422866;1305;108757;-40
2021/11/13 09:56:37;;;;;;;60.50;31.50;;;;;;;4.91;84.90;98752.23;422495;1305;97955;-40
2021/11/13 10:06:42;;;;;;;44.70;26.40;;;;;;;5.09;84.53;98743.80;422667;1306;109759;-40
2021/11/13 10:16:51;;;;;;;51.10;29.20;;;;;;;5.52;84.42;98735.38;422550;1305;111034;-41
2021/11/13 10:27:02;;;;;;;68.30;36.00;;;;;;;5.89;84.13;98724.52;422649;1305;97923;-41
2021/11/13 10:37:11;;;;;;;70.50;37.60;;;;;;;5.92;83.64;98712.16;422735;1306;111249;-39
2021/11/13 10:47:20;;;;;;;53.30;30.00;;;;;;;6.25;83.38;98704.25;422779;1305;108924;-40
2021/11/13 10:57:27;;;;;;;62.40;33.80;;;;;;;6.18;82.94;98695.23;422484;1306;97942;-41
2021/11/13 11:07:34;;;;;;;77.70;41.50;;;;;;;6.21;82.85;98688.01;422569;1305;111053;-42
2021/11/13 11:17:42;;;;;;;73.50;39.70;;;;;;;5.98;82.56;98674.02;422580;1305;109018;-40
2021/11/13 11:27:50;;;;;;;60.00;35.20;;;;;;;5.82;82.34;98665.08;422847;1305;98199;-40
2021/11/13 11:38:01;;;;;;;67.10;35.90;;;;;;;6.00;82.49;98659.89;422713;1305;108213;-40
2021/11/13 11:48:06;;;;;;;79.90;42.60;;;;;;;6.23;82.22;98653.96;422663;1306;98614;-42
2021/11/13 11:58:12;;;;;;;81.20;42.00;;;;;;;6.41;82.24;98648.95;422959;1306;110673;-42
2021/11/13 12:08:19;;;;;;;74.30;39.10;;;;;;;6.55;81.80;98648.65;422580;1305;108768;-40
2021/11/13 12:18:29;;;;;;;61.60;34.20;;;;;;;6.75;81.61;98646.83;422691;1305;97579;-41
2021/11/13 12:28:34;;;;;;;73.10;40.60;;;;;;;7.00;81.36;98640.66;422447;1305;111587;-40
2021/11/13 12:38:43;;;;;;;75.90;41.70;;;;;;;7.17;81.29;98643.25;422762;1305;97919;-41
2021/11/13 12:48:49;;;;;;;;;;;;;;;7.06;80.86;98641.17;422650;1305;97980;-40
2021/11/13 12:58:59;;;;;;;74.30;39.30;;;;;;;6.84;80.67;98623.88;422750;1306;111124;-40
2021/11/13 13:19:13;;;;;;;61.20;33.70;;;;;;;6.95;80.37;98622.00;422469;1306;97924;-41
2021/11/13 13:29:22;;;;;;;75.20;39.20;;;;;;;7.19;80.14;98620.71;422614;1305;111196;-40
2021/11/13 13:39:29;;;;;;;75.40;41.30;;;;;;;7.33;80.22;98626.64;422588;1306;108862;-40
2021/11/13 13:49:39;;;;;;;81.60;43.60;;;;;;;7.14;79.69;98623.84;422801;1305;97938;-42
2021/11/13 13:59:51;;;;;;;82.70;39.00;;;;;;;6.63;79.46;98634.87;422482;1306;110704;-41
2021/11/13 14:10:13;;;;;;;96.90;46.00;;;;;;;6.33;79.74;98638.73;422719;1306;108606;-41
2021/11/13 14:20:18;;;;;;;108.10;51.70;;;;;;;6.03;80.13;98642.30;422411;1305;98479;-40
2021/11/13 14:30:26;;;;;;;74.70;37.70;;;;;;;5.78;80.02;98645.77;422928;1305;97961;-40
2021/11/13 14:40:33;;;;;;;66.10;35.90;;;;;;;5.54;80.02;98649.57;422374;1305;108574;-40
2021/11/13 14:50:40;;;;;;;90.30;42.50;;;;;;;5.19;80.25;98646.04;422531;1305;98056;-40
2021/11/13 15:00:49;;;;;;;93.10;44.70;;;;;;;4.82;80.49;98647.77;422893;1306;111060;-40
2021/11/13 15:10:57;;;;;;;;;;;;;;;4.60;80.54;98654.45;423110;1305;109319;-41
2021/11/13 15:21:03;;;;;;;72.10;34.60;;;;;;;4.40;80.60;98669.39;422798;1305;97929;-40
2021/11/13 15:31:14;;;;;;;70.70;35.60;;;;;;;4.20;80.72;98666.72;422681;1305;110740;-40
2021/11/13 15:41:23;;;;;;;108.80;49.70;;;;;;;4.04;80.89;98674.17;422295;1306;108149;-40
2021/11/13 15:51:35;;;;;;;102.60;47.20;;;;;;;3.89;81.24;98684.52;422533;1306;98472;-40
2021/11/13 16:01:45;;;;;;;110.20;51.60;;;;;;;3.66;81.20;98684.64;422500;1305;111357;-41
2021/11/13 16:22:00;;;;;;;80.90;41.00;;;;;;;3.46;81.42;98689.55;422637;1305;97830;-41
2021/11/13 16:32:09;;;;;;;79.30;42.10;;;;;;;3.54;81.70;98691.70;422530;1306;111879;-44
2021/11/13 16:42:16;;;;;;;89.60;43.40;;;;;;;3.70;81.68;98700.81;422665;1305;107598;-40
2021/11/13 16:52:22;;;;;;;135.00;56.70;;;;;;;3.65;81.76;98708.08;422458;1305;97971;-41
2021/11/13 17:02:30;;;;;;;185.90;66.10;;;;;;;3.53;81.90;98703.23;422775;1306;109019;-40
2021/11/13 17:12:37;;;;;;;134.70;54.10;;;;;;;3.53;82.05;98701.81;418520;1305;5463254;-40
2021/11/13 17:22:48;;;;;;;96.30;47.10;;;;;;;3.58;82.02;98702.09;422586;1305;110546;-40
2021/11/13 17:32:56;;;;;;;90.60;40.70;;;;;;;3.63;82.25;98714.14;422395;1305;106162;-40
2021/11/13 17:43:05;;;;;;;94.60;45.20;;;;;;;3.56;82.41;98721.60;422419;1305;97828;-41
2021/11/13 18:03:23;;;;;;;93.10;42.80;;;;;;;3.44;82.74;98720.00;422323;1306;97951;-42
2021/11/13 18:13:30;;;;;;;92.20;44.80;;;;;;;3.53;83.11;98720.47;422613;1306;110021;-40
2021/11/13 18:33:45;;;;;;;148.10;61.10;;;;;;;3.72;83.05;98715.39;422593;1305;98578;-41
2021/11/13 18:43:52;;;;;;;160.20;64.90;;;;;;;3.60;83.03;98716.91;422369;1305;111343;-41
2021/11/13 18:54:01;;;;;;;115.70;55.80;;;;;;;3.41;82.90;98723.44;422685;1306;108876;-41
2021/11/13 19:04:13;;;;;;;114.20;51.10;;;;;;;3.30;82.95;98724.57;422286;1307;97537;-41
2021/11/13 19:14:21;;;;;;;111.20;56.20;;;;;;;3.38;83.26;98720.86;422701;1306;110160;-40
2021/11/13 19:24:28;;;;;;;112.80;56.80;;;;;;;3.38;83.11;98725.13;422282;1305;108789;-39
2021/11/13 19:34:36;;;;;;;178.10;75.20;;;;;;;3.18;82.98;98725.66;422496;1309;98583;-41
2021/11/13 19:44:43;;;;;;;179.40;70.70;;;;;;;2.93;83.14;98730.12;422515;1306;111133;-41
2021/11/13 19:54:51;;;;;;;154.80;64.60;;;;;;;2.72;83.35;98730.66;422683;1306;108855;-41
2021/11/13 20:04:59;;;;;;;105.50;48.50;;;;;;;2.53;83.01;98732.86;422362;1306;108773;-40
2021/11/13 20:15:05;;;;;;;105.80;49.80;;;;;;;2.29;83.14;98731.47;422603;1305;97971;-41
2021/11/13 20:25:12;;;;;;;99.20;49.90;;;;;;;2.27;83.25;98743.33;422388;1306;109161;-43
2021/11/13 20:35:20;;;;;;;94.70;48.30;;;;;;;2.28;83.32;98750.45;422686;1308;98225;-41
2021/11/13 20:45:33;;;;;;;155.80;67.40;;;;;;;2.26;83.49;98760.77;422392;1305;111017;-40
2021/11/13 20:55:42;;;;;;;181.20;74.30;;;;;;;2.16;83.38;98762.77;422623;1306;108887;-41
2021/11/13 21:05:49;;;;;;;210.70;76.60;;;;;;;1.99;83.44;98760.19;422541;1305;97965;-41
2021/11/13 21:16:01;;;;;;;137.40;70.40;;;;;;;1.84;83.15;98767.27;422708;1306;111104;-40
2021/11/13 21:26:09;;;;;;;151.70;74.10;;;;;;;1.80;83.23;98776.26;422546;1305;108913;-40
2021/11/13 21:36:16;;;;;;;123.50;63.10;;;;;;;1.79;83.23;98776.48;422316;1306;98021;-40
2021/11/13 21:46:23;;;;;;;181.60;81.70;;;;;;;1.63;83.20;98780.27;422673;1306;111409;-41
2021/11/13 21:56:31;;;;;;;165.70;76.70;;;;;;;1.51;83.56;98782.52;422404;1308;108984;-44
2021/11/13 22:06:38;;;;;;;181.10;79.90;;;;;;;1.32;83.22;98780.02;422424;1305;97945;-41
2021/11/13 22:16:45;;;;;;;135.40;68.90;;;;;;;1.22;83.43;98790.63;422590;1306;97939;-40
2021/11/13 22:26:52;;;;;;;129.30;68.40;;;;;;;1.23;83.26;98796.41;422500;1306;109776;-40
2021/11/13 22:37:00;;;;;;;130.00;64.60;;;;;;;1.49;83.84;98801.79;422490;1309;98276;-40
2021/11/13 22:47:07;;;;;;;122.40;63.00;;;;;;;1.68;83.70;98804.04;422657;1308;111291;-40
2021/11/13 22:57:15;;;;;;;169.70;76.50;;;;;;;1.79;83.64;98801.35;422654;1307;107714;-40
2021/11/13 23:07:24;;;;;;;164.40;74.10;;;;;;;1.89;84.00;98795.05;422464;1309;97958;-40
2021/11/13 23:17:31;;;;;;;127.20;63.50;;;;;;;1.96;84.12;98796.88;422912;1312;111180;-40
2021/11/13 23:27:40;;;;;;;115.20;58.30;;;;;;;2.12;84.01;98795.95;422330;1306;108927;-43
2021/11/13 23:37:48;;;;;;;88.20;43.30;;;;;;;2.28;84.04;98796.53;422273;1308;97572;-42
2021/11/13 23:47:56;;;;;;;69.60;38.00;;;;;;;2.43;84.12;98794.17;422564;1307;111188;-40
2021/11/13 23:58:04;;;;;;;64.00;32.60;;;;;;;2.59;84.12;98791.70;422280;1307;108766;-40
